createdAt,value
2023-05-05T00:08:25.181Z,13
2023-05-05T00:23:34.779Z,12.8
2023-05-05T00:38:44.438Z,12.7
2023-05-05T00:53:54.158Z,12.5
2023-05-05T01:09:03.874Z,12.4
2023-05-05T01:24:13.174Z,12.2
2023-05-05T01:39:22.587Z,12.1
2023-05-05T01:54:31.833Z,12.1
2023-05-05T02:09:41.692Z,11.9
2023-05-05T02:24:51.538Z,11.8
2023-05-05T02:41:32.080Z,12.2
2023-05-05T02:56:42.755Z,11.6
2023-05-05T03:11:52.484Z,11.5
2023-05-05T03:27:01.780Z,11.4
2023-05-05T03:42:11.381Z,11.3
2023-05-05T03:57:20.857Z,11.2
2023-05-05T04:12:30.548Z,11.1
2023-05-05T04:27:40.112Z,11.1
2023-05-05T04:42:50.146Z,11.1
2023-05-05T04:58:00.126Z,11.2
2023-05-05T05:13:10.642Z,11.5
2023-05-05T05:28:23.308Z,11.8
2023-05-05T05:43:32.905Z,11.9
2023-05-05T05:58:42.960Z,12.1
2023-05-05T06:13:52.617Z,12.4
2023-05-05T06:29:02.875Z,12.6
2023-05-05T06:44:12.570Z,12.8
2023-05-05T06:59:22.721Z,13
2023-05-05T07:14:33.457Z,13.4
2023-05-05T07:29:44.215Z,13.8
2023-05-05T07:44:54.823Z,14
2023-05-05T08:00:05.286Z,14.3
2023-05-05T08:15:16.959Z,14.6
2023-05-05T08:30:27.172Z,14.7
2023-05-05T08:45:37.186Z,14.9
2023-05-05T09:00:47.633Z,15.1
2023-05-05T09:15:57.936Z,15.4
2023-05-05T09:31:08.499Z,15.7
2023-05-05T09:46:18.994Z,16.1
2023-05-05T10:01:29.512Z,16.4
2023-05-05T10:16:40.332Z,16.5
2023-05-05T10:31:50.956Z,16.6
2023-05-05T10:47:01.247Z,16.8
2023-05-05T11:02:11.852Z,17.1
2023-05-05T11:17:22.372Z,17.4
2023-05-05T11:32:33.110Z,17.6
2023-05-05T11:47:43.598Z,18
2023-05-05T12:02:54.529Z,18.2
2023-05-05T12:18:05.233Z,18.4
2023-05-05T12:33:15.640Z,19
2023-05-05T12:48:26.073Z,20
2023-05-05T13:03:36.427Z,20.6
2023-05-05T13:18:47.700Z,21.5
2023-05-05T13:33:58.194Z,21.8
2023-05-05T13:49:09.152Z,22.3
2023-05-05T14:04:19.733Z,22
2023-05-05T14:19:29.824Z,21.5
2023-05-05T14:34:39.456Z,21
2023-05-05T14:49:49.006Z,20.6
2023-05-05T15:04:58.996Z,20.1
2023-05-05T15:20:08.037Z,19.8
2023-05-05T15:35:17.504Z,19.4
2023-05-05T15:50:27.415Z,19.1
2023-05-05T16:05:37.140Z,18.8
2023-05-05T16:20:48.276Z,18.2
2023-05-05T16:35:58.705Z,17.6
2023-05-05T16:51:08.039Z,16.4
2023-05-05T17:06:17.703Z,15.8
2023-05-05T17:21:27.770Z,15.6
2023-05-05T17:36:37.626Z,15.5
2023-05-05T17:51:47.264Z,15.4
2023-05-05T18:06:57.789Z,15.5
2023-05-05T18:22:08.446Z,15.5
2023-05-05T18:37:18.319Z,15.4
2023-05-05T18:52:28.581Z,15.4
2023-05-05T19:07:38.173Z,15.4
2023-05-05T19:22:48.726Z,15.4
2023-05-05T19:37:58.340Z,15.3
2023-05-05T19:53:08.573Z,15.2
2023-05-05T20:08:19.526Z,15.2
2023-05-05T20:23:28.895Z,15.1
2023-05-05T20:38:39.155Z,15.1
2023-05-05T20:53:50.256Z,15
2023-05-05T21:09:00.174Z,14.9
2023-05-05T21:24:10.632Z,14.9
2023-05-05T21:39:20.198Z,14.9
2023-05-05T21:54:30.199Z,14.9
2023-05-05T22:09:40.174Z,14.8
2023-05-05T22:24:50.412Z,14.8
2023-05-05T22:40:00.523Z,14.6
2023-05-05T22:55:11.223Z,14.6
2023-05-05T23:10:23.612Z,14.6
2023-05-05T23:25:33.455Z,14.4
2023-05-05T23:40:43.577Z,14.3
2023-05-05T23:55:53.678Z,14.1
